CheckWX is a tool to help pilots better visualize weather data.  It is not intended as a substitute for an official pre-flight weather briefing.

19:51:14 UTC

KGFL METAR
Floyd Bennett Memorial Airport
Glens Falls, New York, USA
Current

58 mins ago

KGFL 261853Z AUTO 29012G19KT 10SM CLR 28/11 A2979 RMK AO2 SLP087 T02830106
Observed
May-26 @ 18:53 UTC
Wind
  • 290° at 12 KTS
  • Gusting to 19 KTS
Visibility
10 SM
Flight Rules
VFR
Cloud Levels
  • Clear skies
Temperature
28°C / 82°F
Dewpoint
11°C / 52°F
Humidity
35%
Altimeter
29.79" Hg
Pressure
1008.82 hPa
Previous

2 hours ago

KGFL 261753Z AUTO 29008G21KT 10SM FEW070 SCT095 29/11 A2981 RMK AO2 SLP092 T02890111 10289 20150 56014
Observed
May-26 @ 17:53 UTC
Wind
  • 290° at 8 KTS
  • Gusting to 21 KTS
Visibility
10 SM
Flight Rules
VFR
Cloud Levels
  • Few at 7,000' AGL
  • Scattered at 9,500' AGL
Temperature
29°C / 84°F
Dewpoint
11°C / 52°F
Humidity
33%
Altimeter
29.81" Hg
Pressure
1009.52 hPa
Previous

3 hours ago

KGFL 261653Z AUTO 29010G18KT 250V310 10SM FEW060 SCT080 27/13 A2981 RMK AO2 SLP094 T02720128
Observed
May-26 @ 16:53 UTC
Wind
  • 290° at 10 KTS
  • Gusting to 18 KTS
Visibility
10 SM
Flight Rules
VFR
Cloud Levels
  • Few at 6,000' AGL
  • Scattered at 8,000' AGL
Temperature
27°C / 81°F
Dewpoint
13°C / 55°F
Heat Index
27°C / 81°F
Humidity
42%
Altimeter
29.81" Hg
Pressure
1009.52 hPa